Time;durP1;ratioP1;P1;durP2;ratioP2;P2;SDS_P1;SDS_P2;PMS_P1;PMS_P2;Temp;Humidity;BMP_temperature;BMP_pressure;BME280_temperature;BME280_humidity;BME280_pressure;Samples;Min_cycle;Max_cycle;Signal;HPM_P1;HPM_P2
2023/08/13 00:01:23;;;;;;;1999.90;999.90;;;16.80;99.90;;;;;;5057635;28;20098;-82
2023/08/13 00:03:49;;;;;;;1999.90;999.90;;;16.80;99.90;;;;;;5040783;28;20040;-81
2023/08/13 00:06:15;;;;;;;1999.90;999.90;;;16.80;99.90;;;;;;5041021;28;20098;-82
2023/08/13 00:08:40;;;;;;;1999.90;999.90;;;16.80;99.90;;;;;;5040744;28;20094;-83
2023/08/13 00:11:09;;;;;;;1999.90;999.90;;;16.80;99.90;;;;;;5075375;28;20080;-82
2023/08/13 00:13:35;;;;;;;1999.90;999.90;;;16.80;99.90;;;;;;5057196;28;20109;-82
2023/08/13 00:16:00;;;;;;;1999.90;999.90;;;16.80;99.90;;;;;;5075031;28;20041;-77
2023/08/13 00:18:28;;;;;;;1999.90;999.90;;;16.80;99.90;;;;;;5058155;28;20195;-81
2023/08/13 00:20:53;;;;;;;1999.90;999.90;;;16.80;99.90;;;;;;5075061;28;20154;-82
2023/08/13 00:23:19;;;;;;;1999.90;999.90;;;16.80;99.90;;;;;;5056943;28;20475;-82
2023/08/13 00:25:45;;;;;;;1999.90;999.90;;;16.80;99.90;;;;;;5057550;28;20055;-82
2023/08/13 00:28:11;;;;;;;1999.90;999.90;;;16.80;99.90;;;;;;5057173;28;20104;-82
2023/08/13 00:30:36;;;;;;;1999.90;999.90;;;16.80;99.90;;;;;;5056584;28;20492;-82
2023/08/13 00:33:02;;;;;;;1999.90;999.90;;;16.80;99.90;;;;;;5056262;28;20110;-82
2023/08/13 00:35:28;;;;;;;1999.90;999.90;;;16.80;99.90;;;;;;5056785;28;20056;-82
2023/08/13 00:37:53;;;;;;;1999.90;999.90;;;16.70;99.90;;;;;;5057356;28;20051;-83
2023/08/13 00:40:19;;;;;;;1999.90;999.90;;;16.70;99.90;;;;;;5040258;28;20048;-83
2023/08/13 00:42:45;;;;;;;1999.90;999.90;;;16.70;99.90;;;;;;5056651;28;20044;-83
2023/08/13 00:45:10;;;;;;;1999.90;999.90;;;16.70;99.90;;;;;;5056710;28;20087;-84
2023/08/13 00:47:37;;;;;;;1999.90;999.90;;;16.70;99.90;;;;;;5056836;28;20498;-85
2023/08/13 00:50:04;;;;;;;1999.90;999.90;;;16.70;99.90;;;;;;5023974;28;20400;-84
2023/08/13 00:52:30;;;;;;;1999.90;999.90;;;16.60;99.90;;;;;;5057482;28;20070;-82
2023/08/13 00:54:56;;;;;;;1999.90;999.90;;;16.60;99.90;;;;;;5023761;28;20056;-83
2023/08/13 00:57:23;;;;;;;1999.90;999.90;;;16.60;99.90;;;;;;5040568;28;20102;-83
2023/08/13 00:59:51;;;;;;;1999.90;999.90;;;16.60;99.90;;;;;;5056556;28;20059;-83
2023/08/13 01:02:17;;;;;;;1999.90;999.90;;;16.50;99.90;;;;;;5057246;28;20381;-82
2023/08/13 01:04:43;;;;;;;1999.90;999.90;;;16.50;99.90;;;;;;5074161;28;20040;-82
2023/08/13 01:07:17;;;;;;;1999.90;999.90;;;16.50;99.90;;;;;;5039812;28;20044;-82
2023/08/13 01:10:09;;;;;;;1999.90;999.90;;;16.50;99.90;;;;;;5056155;28;20044;-82
2023/08/13 01:13:03;;;;;;;1999.90;999.90;;;16.50;99.90;;;;;;5058698;28;20074;-84
2023/08/13 01:15:41;;;;;;;1999.90;999.90;;;16.40;99.90;;;;;;5041223;28;20051;-84
2023/08/13 01:18:07;;;;;;;1999.90;999.90;;;16.40;99.90;;;;;;5057492;28;20049;-84
2023/08/13 01:20:38;;;;;;;1999.90;999.90;;;16.40;99.90;;;;;;5056935;28;20426;-84
2023/08/13 01:23:04;;;;;;;1999.90;999.90;;;16.40;99.90;;;;;;5056397;28;20044;-83
2023/08/13 01:25:31;;;;;;;1999.90;999.90;;;16.40;99.90;;;;;;5039678;28;20040;-83
2023/08/13 01:28:22;;;;;;;1999.90;999.90;;;16.40;99.90;;;;;;5055901;28;20052;-84
2023/08/13 01:30:51;;;;;;;1999.90;999.90;;;16.40;99.90;;;;;;5055639;28;20053;-84
2023/08/13 01:33:26;;;;;;;1999.90;999.90;;;16.40;99.90;;;;;;5056027;28;20088;-84
2023/08/13 01:35:56;;;;;;;1999.90;999.90;;;16.40;99.90;;;;;;5073410;28;20484;-85
2023/08/13 01:38:23;;;;;;;1999.90;999.90;;;16.40;99.90;;;;;;5056839;28;20044;-85
2023/08/13 01:40:50;;;;;;;1999.90;999.90;;;16.50;99.90;;;;;;5055885;28;20053;-84
2023/08/13 01:43:16;;;;;;;1999.90;999.90;;;16.50;99.90;;;;;;5022736;28;20048;-84
2023/08/13 01:45:42;;;;;;;1999.90;999.90;;;16.50;99.90;;;;;;5055979;28;20095;-84
2023/08/13 01:48:08;;;;;;;1999.90;999.90;;;16.50;99.90;;;;;;5039401;28;20460;-83
2023/08/13 01:50:34;;;;;;;1999.90;999.90;;;16.50;99.90;;;;;;5056677;28;20048;-83
2023/08/13 01:53:00;;;;;;;1999.90;999.90;;;16.50;99.90;;;;;;5056080;28;20138;-83
2023/08/13 01:55:25;;;;;;;1999.90;999.90;;;16.50;99.90;;;;;;5056758;28;20036;-82
2023/08/13 01:57:51;;;;;;;1999.90;999.90;;;16.50;99.90;;;;;;5040716;28;20127;-83
2023/08/13 02:00:17;;;;;;;1999.90;999.90;;;16.50;99.90;;;;;;5041246;28;20131;-83
2023/08/13 02:02:43;;;;;;;1999.90;999.90;;;16.50;99.90;;;;;;5056326;28;20044;-85
2023/08/13 02:05:08;;;;;;;1999.90;999.90;;;16.50;99.90;;;;;;5057220;28;20101;-82
2023/08/13 02:07:34;;;;;;;1999.90;999.90;;;16.50;99.90;;;;;;5055074;28;20110;-83
2023/08/13 02:10:00;;;;;;;1999.90;999.90;;;16.50;99.90;;;;;;5039122;28;20084;-83
2023/08/13 02:12:26;;;;;;;1999.90;999.90;;;16.50;99.90;;;;;;5058237;28;20393;-83
2023/08/13 02:14:51;;;;;;;1999.90;999.90;;;16.50;99.90;;;;;;5024510;28;20041;-85
2023/08/13 02:17:17;;;;;;;1999.90;999.90;;;16.50;99.90;;;;;;5057143;28;20101;-85
2023/08/13 02:19:43;;;;;;;1999.90;999.90;;;16.50;99.90;;;;;;5057034;28;20392;-84
2023/08/13 02:22:08;;;;;;;1999.90;999.90;;;16.50;99.90;;;;;;5040707;28;20037;-83
2023/08/13 02:24:34;;;;;;;1999.90;999.90;;;16.50;99.90;;;;;;5055651;28;20087;-83
2023/08/13 02:27:00;;;;;;;1999.90;999.90;;;16.50;99.90;;;;;;5055309;28;20048;-84
2023/08/13 02:29:26;;;;;;;1999.90;999.90;;;16.50;99.90;;;;;;5055596;28;20044;-86
2023/08/13 02:31:51;;;;;;;1999.90;999.90;;;16.50;99.90;;;;;;5056575;28;20055;-82
2023/08/13 02:34:17;;;;;;;1999.90;999.90;;;16.50;99.90;;;;;;5055583;28;20082;-83
2023/08/13 02:36:42;;;;;;;1999.90;999.90;;;16.50;99.90;;;;;;5055661;28;20044;-83
2023/08/13 02:39:08;;;;;;;1999.90;999.90;;;16.50;99.90;;;;;;5055819;28;20190;-84
2023/08/13 02:41:34;;;;;;;1999.90;999.90;;;16.50;99.90;;;;;;5038826;28;20048;-84
2023/08/13 02:43:59;;;;;;;1999.90;999.90;;;16.50;99.90;;;;;;5055898;28;20060;-84
2023/08/13 02:46:26;;;;;;;1999.90;999.90;;;16.50;99.90;;;;;;5055583;28;20041;-85
2023/08/13 02:48:54;;;;;;;1999.90;999.90;;;16.50;99.90;;;;;;5055754;28;20060;-85
2023/08/13 02:51:20;;;;;;;1999.90;999.90;;;16.50;99.90;;;;;;5038204;28;20052;-85
2023/08/13 02:53:45;;;;;;;1999.90;999.90;;;16.50;99.90;;;;;;5039639;28;20055;-82
2023/08/13 02:56:11;;;;;;;1999.90;999.90;;;16.50;99.90;;;;;;5056012;28;20431;-82
2023/08/13 02:58:37;;;;;;;1999.90;999.90;;;16.50;99.90;;;;;;5076748;28;20051;-82
2023/08/13 03:01:03;;;;;;;1999.90;999.90;;;16.50;99.90;;;;;;5058899;28;20036;-83
2023/08/13 03:03:29;;;;;;;1999.90;999.90;;;16.50;99.90;;;;;;5058291;28;20120;-84
2023/08/13 03:05:56;;;;;;;1999.90;999.90;;;16.50;99.90;;;;;;5058744;28;20056;-85
2023/08/13 03:08:22;;;;;;;1999.90;999.90;;;16.50;99.90;;;;;;5058849;28;20559;-85
2023/08/13 03:10:47;;;;;;;1999.90;999.90;;;16.50;99.90;;;;;;5025705;28;20127;-83
2023/08/13 03:13:13;;;;;;;1999.90;999.90;;;16.50;99.90;;;;;;5058937;28;20484;-83
2023/08/13 03:15:39;;;;;;;1999.90;999.90;;;16.50;99.90;;;;;;5059584;28;20462;-86
2023/08/13 03:18:05;;;;;;;1999.90;999.90;;;16.40;99.90;;;;;;5058639;28;20044;-84
2023/08/13 03:20:30;;;;;;;1999.90;999.90;;;16.50;99.90;;;;;;5058516;28;20119;-83
2023/08/13 03:22:56;;;;;;;1999.90;999.90;;;16.40;99.90;;;;;;5058308;28;20475;-83
2023/08/13 03:25:22;;;;;;;1999.90;999.90;;;16.40;99.90;;;;;;5076076;28;20066;-83
2023/08/13 03:27:49;;;;;;;1999.90;999.90;;;16.40;99.90;;;;;;5076052;28;20430;-83
2023/08/13 03:30:15;;;;;;;1999.90;999.90;;;16.40;99.90;;;;;;5076363;28;20071;-83
2023/08/13 03:32:41;;;;;;;1999.90;999.90;;;16.40;99.90;;;;;;5060959;28;20052;-84
2023/08/13 03:35:07;;;;;;;1999.90;999.90;;;16.30;99.90;;;;;;5042755;28;20049;-83
2023/08/13 03:37:32;;;;;;;1999.90;999.90;;;16.30;99.90;;;;;;5076613;28;20135;-83
2023/08/13 03:39:58;;;;;;;1999.90;999.90;;;16.30;99.90;;;;;;5058847;28;20059;-84
2023/08/13 03:42:24;;;;;;;1999.90;999.90;;;16.20;99.90;;;;;;5057887;28;20472;-83
2023/08/13 03:44:49;;;;;;;1999.90;999.90;;;16.20;99.90;;;;;;5042232;28;20053;-83
2023/08/13 03:47:15;;;;;;;1999.90;999.90;;;16.20;99.90;;;;;;5058190;28;20048;-83
2023/08/13 03:49:41;;;;;;;1999.90;999.90;;;16.20;99.90;;;;;;5075667;28;20051;-84
2023/08/13 03:52:09;;;;;;;1999.90;999.90;;;16.10;99.90;;;;;;5058796;28;20377;-83
2023/08/13 03:54:35;;;;;;;1999.90;999.90;;;16.20;99.90;;;;;;5075686;28;20060;-83
2023/08/13 03:57:00;;;;;;;1999.90;999.90;;;16.10;99.90;;;;;;5057933;28;20044;-83
2023/08/13 03:59:26;;;;;;;1999.90;999.90;;;16.10;99.90;;;;;;5058110;28;20045;-83
2023/08/13 04:01:52;;;;;;;1999.90;999.90;;;16.10;99.90;;;;;;5057423;28;20049;-84
2023/08/13 04:04:17;;;;;;;1999.90;999.90;;;16.00;99.90;;;;;;5058414;28;20060;-83
2023/08/13 04:06:43;;;;;;;1999.90;999.90;;;16.10;99.90;;;;;;5057540;28;20037;-84
2023/08/13 04:09:09;;;;;;;1999.90;999.90;;;16.00;99.90;;;;;;5056605;28;20434;-84
2023/08/13 04:11:35;;;;;;;1999.90;999.90;;;16.00;99.90;;;;;;5057747;28;20098;-83
2023/08/13 04:14:01;;;;;;;1999.90;999.90;;;16.00;99.90;;;;;;5057420;28;20037;-78
2023/08/13 04:16:27;;;;;;;1999.90;999.90;;;16.00;99.90;;;;;;5075108;28;20040;-80
2023/08/13 04:18:52;;;;;;;1999.90;999.90;;;15.90;99.90;;;;;;5058176;28;20105;-81
2023/08/13 04:21:18;;;;;;;1999.90;999.90;;;15.90;99.90;;;;;;5040612;28;20119;-83
2023/08/13 04:23:44;;;;;;;1999.90;999.90;;;15.90;99.90;;;;;;5074957;28;20084;-84
2023/08/13 04:26:10;;;;;;;1999.90;999.90;;;15.90;99.90;;;;;;5058079;28;20094;-84
2023/08/13 04:28:36;;;;;;;1999.90;999.90;;;15.90;99.90;;;;;;5040874;28;20052;-83
2023/08/13 04:31:02;;;;;;;1999.90;999.90;;;15.90;99.90;;;;;;5023418;28;20120;-83
2023/08/13 04:33:27;;;;;;;1999.90;999.90;;;15.90;99.90;;;;;;5057566;28;20052;-83
2023/08/13 04:35:54;;;;;;;1999.90;999.90;;;15.90;99.90;;;;;;5024078;28;20138;-83
2023/08/13 04:38:20;;;;;;;1999.90;999.90;;;15.90;99.90;;;;;;5056755;28;20056;-83
2023/08/13 04:40:49;;;;;;;1999.90;999.90;;;15.90;99.90;;;;;;5056932;28;20044;-82
2023/08/13 04:43:15;;;;;;;1999.90;999.90;;;15.90;99.90;;;;;;5056753;28;20438;-81
2023/08/13 04:45:46;;;;;;;1999.90;999.90;;;15.90;99.90;;;;;;5074503;28;20048;-77
2023/08/13 04:48:16;;;;;;;1999.90;999.90;;;15.90;99.90;;;;;;5074541;28;20084;-83
2023/08/13 04:50:41;;;;;;;1999.90;999.90;;;15.90;99.90;;;;;;5025184;28;20044;-83
2023/08/13 04:53:07;;;;;;;1999.90;999.90;;;15.90;99.90;;;;;;5056790;28;20054;-80
2023/08/13 04:55:33;;;;;;;1999.90;999.90;;;15.90;99.90;;;;;;5056772;28;20045;-83
2023/08/13 04:57:59;;;;;;;1999.90;999.90;;;15.90;99.90;;;;;;5039810;28;20044;-82
2023/08/13 05:00:24;;;;;;;1999.90;999.90;;;15.90;99.90;;;;;;5056705;28;20099;-82
2023/08/13 05:02:50;;;;;;;1999.90;999.90;;;15.90;99.90;;;;;;5039850;28;20491;-82
2023/08/13 05:05:16;;;;;;;1999.90;999.90;;;15.90;99.90;;;;;;5056746;28;20044;-82
2023/08/13 05:07:42;;;;;;;1999.90;999.90;;;15.90;99.90;;;;;;5023562;28;20051;-81
2023/08/13 05:10:08;;;;;;;1999.90;999.90;;;15.90;99.90;;;;;;5039873;28;20083;-82
2023/08/13 05:12:33;;;;;;;1999.90;999.90;;;16.00;99.90;;;;;;5056356;28;20055;-82
2023/08/13 05:14:59;;;;;;;1999.90;999.90;;;16.00;99.90;;;;;;5039887;28;20044;-81
2023/08/13 05:17:25;;;;;;;1999.90;999.90;;;16.10;99.90;;;;;;5056329;28;20048;-81
2023/08/13 05:19:51;;;;;;;1999.90;999.90;;;16.00;99.90;;;;;;5056090;28;20052;-82
2023/08/13 05:22:17;;;;;;;1999.90;999.90;;;16.10;99.90;;;;;;5056994;28;20093;-81
2023/08/13 05:24:44;;;;;;;1999.90;999.90;;;16.10;99.90;;;;;;5056089;28;20045;-81
2023/08/13 05:27:09;;;;;;;1999.90;999.90;;;16.10;99.90;;;;;;5039308;28;20485;-81
2023/08/13 05:29:35;;;;;;;1999.90;999.90;;;16.20;99.90;;;;;;5056632;28;20106;-80
2023/08/13 05:32:02;;;;;;;1999.90;999.90;;;16.20;99.90;;;;;;5039258;28;20049;-80
2023/08/13 05:34:27;;;;;;;1999.90;999.90;;;16.20;99.90;;;;;;5073736;28;20064;-80
2023/08/13 05:36:53;;;;;;;1999.90;999.90;;;16.30;99.90;;;;;;5073669;28;20052;-81
2023/08/13 05:39:23;;;;;;;1999.90;999.90;;;16.30;99.90;;;;;;5073710;28;20084;-82
2023/08/13 05:41:49;;;;;;;1999.90;999.90;;;16.30;99.90;;;;;;5055542;28;20044;-81
2023/08/13 05:44:14;;;;;;;1999.90;999.90;;;16.40;99.90;;;;;;5023347;28;20040;-80
2023/08/13 05:46:40;;;;;;;1999.90;999.90;;;16.50;99.90;;;;;;5055784;28;20178;-81
2023/08/13 05:49:06;;;;;;;1999.90;999.90;;;16.50;99.90;;;;;;5055839;28;20044;-81
2023/08/13 05:51:31;;;;;;;1999.90;999.90;;;16.50;99.90;;;;;;5023691;28;20040;-81
2023/08/13 05:53:57;;;;;;;1999.90;999.90;;;16.50;99.90;;;;;;5039612;28;20139;-82
2023/08/13 05:56:22;;;;;;;1999.90;999.90;;;16.60;99.90;;;;;;5022512;28;20070;-81
2023/08/13 05:58:48;;;;;;;1999.90;999.90;;;16.60;99.90;;;;;;5039283;28;20076;-81
2023/08/13 06:01:14;;;;;;;1999.90;999.90;;;16.70;99.90;;;;;;5056106;28;20055;-81
2023/08/13 06:03:39;;;;;;;1999.90;999.90;;;16.80;99.90;;;;;;5074008;28;20047;-79
2023/08/13 06:06:05;;;;;;;1999.90;999.90;;;16.90;99.90;;;;;;5055597;28;20047;-80
2023/08/13 06:08:31;;;;;;;1999.90;999.90;;;16.90;99.90;;;;;;5039196;28;20143;-81
2023/08/13 06:10:56;;;;;;;1999.90;999.90;;;16.90;99.90;;;;;;5055466;28;20053;-81
2023/08/13 06:13:22;;;;;;;1999.90;999.90;;;17.00;99.90;;;;;;5055701;28;20045;-80
2023/08/13 06:15:48;;;;;;;1999.90;999.90;;;17.00;99.90;;;;;;5022709;28;20088;-81
2023/08/13 06:18:14;;;;;;;1999.90;999.90;;;17.00;99.90;;;;;;5055630;28;20080;-80
2023/08/13 06:20:39;;;;;;;1999.90;999.90;;;17.10;99.90;;;;;;5039783;28;20040;-80
2023/08/13 06:23:05;;;;;;;1999.90;999.90;;;17.10;99.90;;;;;;5022399;28;20450;-80
2023/08/13 06:25:31;;;;;;;1999.90;999.90;;;17.10;99.90;;;;;;5039007;28;20514;-80
2023/08/13 06:27:56;;;;;;;1999.90;999.90;;;17.10;99.90;;;;;;5038959;28;20048;-80
2023/08/13 06:30:24;;;;;;;1999.90;999.90;;;17.10;99.90;;;;;;5039527;28;20045;-81
2023/08/13 06:32:49;;;;;;;1999.90;999.90;;;17.10;99.90;;;;;;5059111;28;20083;-81
2023/08/13 06:35:15;;;;;;;1999.90;999.90;;;17.10;99.90;;;;;;5059326;28;20487;-80
2023/08/13 06:37:41;;;;;;;1999.90;999.90;;;17.10;99.90;;;;;;5059288;28;20047;-81
2023/08/13 06:40:08;;;;;;;1999.90;999.90;;;17.10;99.90;;;;;;5076912;28;20047;-80
2023/08/13 06:42:33;;;;;;;1999.90;999.90;;;17.10;99.90;;;;;;5058836;28;20051;-79
2023/08/13 06:44:59;;;;;;;1999.90;999.90;;;17.10;99.90;;;;;;5042635;28;20135;-79
2023/08/13 06:47:25;;;;;;;1999.90;999.90;;;17.10;99.90;;;;;;5059092;28;20044;-80
2023/08/13 06:49:50;;;;;;;1999.90;999.90;;;17.10;99.90;;;;;;5042469;28;20048;-79
2023/08/13 06:52:16;;;;;;;1999.90;999.90;;;17.20;99.90;;;;;;5058976;28;20476;-79
2023/08/13 06:54:42;;;;;;;1999.90;999.90;;;17.20;99.90;;;;;;5076706;28;20040;-79
2023/08/13 06:57:08;;;;;;;1999.90;999.90;;;17.20;99.90;;;;;;5077398;28;20052;-79
2023/08/13 06:59:34;;;;;;;1999.90;999.90;;;17.30;99.90;;;;;;5076649;28;20048;-78
2023/08/13 07:02:00;;;;;;;1999.90;999.90;;;17.60;99.90;;;;;;5058704;28;20437;-79
2023/08/13 07:04:25;;;;;;;1999.90;999.90;;;17.40;99.90;;;;;;5058473;28;20087;-79
2023/08/13 07:06:51;;;;;;;1999.90;999.90;;;17.50;99.90;;;;;;5043005;28;20467;-79
2023/08/13 07:09:17;;;;;;;1999.90;999.90;;;17.50;99.90;;;;;;5041591;28;20074;-79
2023/08/13 07:11:43;;;;;;;1999.90;999.90;;;17.60;99.90;;;;;;5058516;28;20058;-80
2023/08/13 07:14:08;;;;;;;1999.90;999.90;;;17.60;99.90;;;;;;5041987;28;20391;-80
2023/08/13 07:16:35;;;;;;;1999.90;999.90;;;17.60;99.90;;;;;;5076330;28;20109;-79
2023/08/13 07:19:00;;;;;;;1999.90;999.90;;;17.70;99.90;;;;;;5076222;28;20082;-80
2023/08/13 07:21:26;;;;;;;1999.90;999.90;;;17.70;99.90;;;;;;5025257;28;20131;-77
2023/08/13 07:23:52;;;;;;;1999.90;999.90;;;17.60;99.90;;;;;;5025133;28;20076;-80
2023/08/13 07:26:18;;;;;;;1999.90;999.90;;;17.60;99.90;;;;;;5058293;28;20052;-80
2023/08/13 07:28:44;;;;;;;1999.90;999.90;;;17.70;99.90;;;;;;5058362;28;20059;-81
2023/08/13 07:31:10;;;;;;;1999.90;999.90;;;17.70;99.90;;;;;;5058051;28;20408;-81
2023/08/13 07:33:35;;;;;;;1999.90;999.90;;;17.70;99.90;;;;;;5058284;28;20067;-80
2023/08/13 07:36:05;;;;;;;1999.90;999.90;;;17.70;99.90;;;;;;5058905;28;20059;-81
2023/08/13 07:38:30;;;;;;;1999.90;999.90;;;17.80;99.90;;;;;;5057955;28;20130;-80
2023/08/13 07:40:57;;;;;;;1999.90;999.90;;;17.90;99.90;;;;;;5041486;28;20111;-80
2023/08/13 07:43:24;;;;;;;1999.90;999.90;;;17.90;99.90;;;;;;5041421;28;20371;-79
2023/08/13 07:45:50;;;;;;;1999.90;999.90;;;18.00;99.90;;;;;;5041375;28;20479;-82
2023/08/13 07:48:17;;;;;;;1999.90;999.90;;;18.00;99.90;;;;;;5076677;28;20048;-81
2023/08/13 07:50:43;;;;;;;1999.90;999.90;;;18.10;99.90;;;;;;5075855;28;20385;-80
2023/08/13 07:53:09;;;;;;;1999.90;999.90;;;18.10;99.90;;;;;;5058123;28;20051;-82
2023/08/13 07:55:35;;;;;;;1999.90;999.90;;;18.20;99.90;;;;;;5075924;28;20385;-81
2023/08/13 07:58:00;;;;;;;1999.90;999.90;;;18.20;99.90;;;;;;5075613;28;20074;-80
2023/08/13 08:00:26;;;;;;;1999.90;999.90;;;18.30;99.90;;;;;;5075365;28;20501;-81
2023/08/13 08:02:53;;;;;;;1999.90;999.90;;;18.30;99.90;;;;;;5041027;28;20046;-79
2023/08/13 08:05:22;;;;;;;1999.90;999.90;;;18.30;99.90;;;;;;5057822;28;20056;-80
2023/08/13 08:07:48;;;;;;;1999.90;999.90;;;18.40;99.90;;;;;;5057757;28;20049;-78
2023/08/13 08:10:14;;;;;;;1999.90;999.90;;;18.40;99.90;;;;;;5057555;28;20055;-81
2023/08/13 08:12:40;;;;;;;1999.90;999.90;;;18.50;99.90;;;;;;5075260;28;20094;-78
2023/08/13 08:15:06;;;;;;;1999.90;999.90;;;18.60;99.90;;;;;;5041016;28;20412;-79
2023/08/13 08:17:34;;;;;;;1999.90;999.90;;;18.60;99.90;;;;;;5057956;28;20048;-79
2023/08/13 08:20:00;;;;;;;1999.90;999.90;;;18.70;99.90;;;;;;5057547;28;20052;-80
2023/08/13 08:22:26;;;;;;;1999.90;999.90;;;18.70;99.90;;;;;;5058221;28;20037;-77
2023/08/13 08:24:54;;;;;;;1999.90;999.90;;;18.80;99.90;;;;;;5075923;28;20449;-79
2023/08/13 08:27:19;;;;;;;1999.90;999.90;;;18.80;99.90;;;;;;5075088;28;20051;-80
2023/08/13 08:29:45;;;;;;;1999.90;999.90;;;18.80;99.90;;;;;;5075484;28;20036;-80
2023/08/13 08:32:11;;;;;;;1999.90;999.90;;;18.80;99.90;;;;;;5075412;28;20048;-81
2023/08/13 08:34:36;;;;;;;1999.90;999.90;;;18.90;99.90;;;;;;5057303;28;20136;-81
2023/08/13 08:37:04;;;;;;;1999.90;999.90;;;18.90;99.90;;;;;;5057120;28;20084;-79
2023/08/13 08:39:29;;;;;;;1999.90;999.90;;;18.90;99.90;;;;;;5074836;28;20044;-79
2023/08/13 08:41:56;;;;;;;1999.90;999.90;;;19.00;99.90;;;;;;5074567;28;20070;-76
2023/08/13 08:44:23;;;;;;;1999.90;999.90;;;19.10;99.90;;;;;;5074688;28;20466;-73
2023/08/13 08:46:50;;;;;;;1999.90;999.90;;;19.20;99.90;;;;;;5074922;28;20044;-77
2023/08/13 08:49:18;;;;;;;1999.90;999.90;;;19.20;99.90;;;;;;5075120;28;20048;-75
2023/08/13 08:51:45;;;;;;;1999.90;999.90;;;19.30;99.90;;;;;;5040399;28;20045;-77
2023/08/13 08:54:11;;;;;;;1999.90;999.90;;;19.40;99.90;;;;;;5056225;28;20047;-72
2023/08/13 08:56:37;;;;;;;1999.90;999.90;;;19.60;99.90;;;;;;5074513;28;20048;-72
2023/08/13 08:59:04;;;;;;;1999.90;999.90;;;19.60;99.90;;;;;;5074722;28;20075;-72
2023/08/13 09:01:30;;;;;;;1999.90;999.90;;;19.70;99.90;;;;;;5074383;28;20044;-75
2023/08/13 09:03:56;;;;;;;1999.90;999.90;;;19.90;99.90;;;;;;5074309;28;20040;-75
2023/08/13 09:06:22;;;;;;;1999.90;999.90;;;19.90;99.90;;;;;;5074324;28;20097;-76
2023/08/13 09:08:48;;;;;;;1999.90;999.90;;;20.00;99.90;;;;;;5074255;28;20487;-72
2023/08/13 09:11:14;;;;;;;1999.90;999.90;;;20.10;99.90;;;;;;5073955;28;20059;-77
2023/08/13 09:13:50;;;;;;;1999.90;999.90;;;20.10;99.90;;;;;;5074225;28;20036;-79
2023/08/13 09:16:16;;;;;;;1999.90;999.90;;;20.10;99.90;;;;;;5056243;28;20079;-78
2023/08/13 09:18:42;;;;;;;1999.90;999.90;;;20.00;99.90;;;;;;5074212;28;20056;-75
2023/08/13 09:21:09;;;;;;;1999.90;999.90;;;20.10;99.90;;;;;;5073990;28;20057;-75
2023/08/13 09:23:38;;;;;;;1999.90;999.90;;;20.10;99.90;;;;;;5073961;28;20040;-75
2023/08/13 09:26:03;;;;;;;1999.90;999.90;;;20.10;99.90;;;;;;5074034;28;20045;-76
2023/08/13 09:28:29;;;;;;;1999.90;999.90;;;20.10;99.90;;;;;;5073988;28;20044;-72
2023/08/13 09:30:57;;;;;;;1999.90;999.90;;;20.10;99.90;;;;;;5073721;28;20380;-74
2023/08/13 09:33:23;;;;;;;1999.90;999.90;;;20.10;99.90;;;;;;5074400;28;20040;-75
2023/08/13 09:35:49;;;;;;;1999.90;999.90;;;20.00;99.90;;;;;;5074463;28;20053;-77
2023/08/13 09:38:14;;;;;;;1999.90;999.90;;;19.90;99.90;;;;;;5039532;28;20048;-76
2023/08/13 09:40:44;;;;;;;1999.90;999.90;;;20.00;99.90;;;;;;5073818;28;20052;-77
2023/08/13 09:43:15;;;;;;;1999.90;999.90;;;20.00;99.90;;;;;;5073663;28;20079;-78
2023/08/13 09:45:43;;;;;;;1999.90;999.90;;;20.00;99.90;;;;;;5074600;28;20048;-76
2023/08/13 09:48:14;;;;;;;1999.90;999.90;;;20.00;99.90;;;;;;5056869;28;20064;-76
2023/08/13 09:50:41;;;;;;;1999.90;999.90;;;19.90;99.90;;;;;;5073694;28;20048;-77
2023/08/13 09:53:12;;;;;;;1999.90;999.90;;;19.90;99.90;;;;;;5073675;28;20086;-76
2023/08/13 09:55:48;;;;;;;1999.90;999.90;;;20.00;99.90;;;;;;5073652;28;20168;-78
2023/08/13 09:58:17;;;;;;;1999.90;999.90;;;20.00;99.90;;;;;;5073771;28;20044;-79
2023/08/13 10:00:43;;;;;;;1999.90;999.90;;;20.00;99.90;;;;;;5074277;28;20127;-78
2023/08/13 10:03:10;;;;;;;1999.90;999.90;;;20.10;99.90;;;;;;5073467;28;20567;-80
2023/08/13 10:05:38;;;;;;;1999.90;999.90;;;20.20;99.90;;;;;;5055729;28;20056;-81
2023/08/13 10:08:05;;;;;;;1999.90;999.90;;;20.30;99.90;;;;;;5077457;28;20048;-81
2023/08/13 10:10:31;;;;;;;1999.90;999.90;;;20.30;99.90;;;;;;5077910;28;20543;-75
2023/08/13 10:12:57;;;;;;;1999.90;999.90;;;20.40;99.90;;;;;;5077468;28;20495;-80
2023/08/13 10:15:24;;;;;;;1999.90;999.90;;;20.40;99.90;;;;;;5077621;28;20048;-79
2023/08/13 10:17:51;;;;;;;1999.90;999.90;;;20.50;99.90;;;;;;5059942;28;20476;-81
2023/08/13 10:20:18;;;;;;;1999.90;999.90;;;20.50;99.90;;;;;;5077477;28;20476;-79
2023/08/13 10:22:45;;;;;;;1999.90;999.90;;;20.50;99.90;;;;;;5077365;28;20517;-78
2023/08/13 10:25:26;;;;;;;1999.90;999.90;;;20.60;99.90;;;;;;5077356;28;20123;-78
2023/08/13 10:27:54;;;;;;;1999.90;999.90;;;20.60;99.90;;;;;;5077626;28;20071;-75
2023/08/13 10:30:20;;;;;;;1999.90;999.90;;;20.70;99.90;;;;;;5077148;28;20505;-74
2023/08/13 10:32:57;;;;;;;1999.90;999.90;;;20.70;99.90;;;;;;5077939;28;20088;-73
2023/08/13 10:35:34;;;;;;;1999.90;999.90;;;20.80;99.90;;;;;;5077227;28;20044;-76
2023/08/13 10:38:02;;;;;;;1999.90;999.90;;;20.80;99.90;;;;;;5078035;28;20086;-76
2023/08/13 10:40:29;;;;;;;1999.90;999.90;;;20.80;99.90;;;;;;5059679;28;20137;-76
2023/08/13 10:42:56;;;;;;;1999.90;999.90;;;20.80;99.90;;;;;;5042573;28;20048;-77
2023/08/13 10:45:28;;;;;;;1999.90;999.90;;;20.80;99.90;;;;;;5059145;28;20094;-75
2023/08/13 10:47:54;;;;;;;;;;;20.80;99.90;;;;;;5077380;28;20048;-76
2023/08/13 10:50:21;;;;;;;1999.90;999.90;;;20.80;99.90;;;;;;5059584;28;20054;-77
2023/08/13 10:53:01;;;;;;;1999.90;999.90;;;20.80;99.90;;;;;;5076785;28;20045;-78
2023/08/13 10:55:29;;;;;;;1999.90;999.90;;;20.90;99.90;;;;;;5076876;28;20052;-76
2023/08/13 10:57:55;;;;;;;1999.90;999.90;;;20.90;99.90;;;;;;5058919;28;20052;-76
2023/08/13 11:00:26;;;;;;;1999.90;999.90;;;21.00;99.90;;;;;;5059379;28;20093;-79
2023/08/13 11:03:14;;;;;;;1999.90;999.90;;;21.10;99.90;;;;;;5076620;28;20041;-77
2023/08/13 11:05:39;;;;;;;1999.90;999.90;;;21.20;99.90;;;;;;5076716;28;20080;-77
2023/08/13 11:08:07;;;;;;;1999.90;999.90;;;21.30;99.90;;;;;;5076323;28;20076;-75
2023/08/13 11:10:33;;;;;;;1999.90;999.90;;;21.40;99.90;;;;;;5076503;28;20088;-76
2023/08/13 11:13:00;;;;;;;1999.90;999.90;;;21.40;99.90;;;;;;5077186;28;20072;-76
2023/08/13 11:15:28;;;;;;;1999.90;999.90;;;21.40;99.90;;;;;;5077015;28;20118;-73
2023/08/13 11:17:53;;;;;;;1999.90;999.90;;;21.50;99.90;;;;;;5075926;28;20482;-74
2023/08/13 11:20:19;;;;;;;1999.90;999.90;;;21.60;99.90;;;;;;5076842;28;20076;-73
2023/08/13 11:22:46;;;;;;;1999.90;999.90;;;21.60;99.90;;;;;;5058538;28;20118;-73
2023/08/13 11:25:13;;;;;;;1999.90;999.90;;;21.70;99.90;;;;;;5076354;28;20055;-73
2023/08/13 11:27:39;;;;;;;1999.90;999.90;;;21.80;99.90;;;;;;5076497;28;20089;-72
2023/08/13 11:30:07;;;;;;;1999.90;999.90;;;21.80;99.90;;;;;;5076123;28;20425;-73
2023/08/13 11:32:36;;;;;;;1999.90;999.90;;;21.80;99.90;;;;;;5076715;28;20057;-74
2023/08/13 11:35:09;;;;;;;1999.90;999.90;;;21.80;99.90;;;;;;5058183;28;20123;-74
2023/08/13 11:37:37;;;;;;;1999.90;999.90;;;21.70;99.90;;;;;;5076354;28;20366;-74
2023/08/13 11:40:05;;;;;;;1999.90;999.90;;;21.70;99.90;;;;;;5076072;28;20196;-74
2023/08/13 11:42:32;;;;;;;1999.90;999.90;;;21.70;99.90;;;;;;5057936;28;20441;-74
2023/08/13 11:44:57;;;;;;;1999.90;999.90;;;21.70;99.90;;;;;;5075576;28;20484;-73
2023/08/13 11:47:25;;;;;;;1999.90;999.90;;;21.70;99.90;;;;;;5076366;28;20060;-74
2023/08/13 11:49:51;;;;;;;1999.90;999.90;;;21.70;99.90;;;;;;5075824;28;20132;-75
2023/08/13 11:52:20;;;;;;;1999.90;999.90;;;21.70;99.90;;;;;;5041246;28;20127;-77
2023/08/13 11:54:46;;;;;;;1999.90;999.90;;;21.70;99.90;;;;;;5076000;28;20361;-76
2023/08/13 11:57:12;;;;;;;1999.90;999.90;;;21.70;99.90;;;;;;5075691;28;20044;-77